WetterOnline ( https://www.wetteronline.de )

Wetter aktuell Freising

Aktuelles Wetter: München/Flughafen (447m)

6-stündlich | Neueste Meldungen
Ortszeit Temperatur Wetter
Do, 23.01. 19:00 -3.1° C fast wolkenlos
Do, 23.01. 13:00 -0.8° C bedeckt
Do, 23.01. 7:00 -3.2° C bedeckt
Do, 23.01. 1:00 -3.0° C bedeckt
Mi, 22.01. 19:00 -3.0° C bewölkt
Mi, 22.01. 13:00 -2.1° C Schneegriesel
Mi, 22.01. 7:00 -3.6° C bedeckt
Mi, 22.01. 1:00 -3.1° C bedeckt
Ortszeit Temperatur Wetter
Do, 23.01. 23:20 -4° C bewölkt
Do, 23.01. 23:00 -4.7° C bewölkt
Do, 23.01. 22:50 -4.7° C -
Do, 23.01. 22:40 -5.1° C -
Do, 23.01. 22:30 -6.0° C -
Do, 23.01. 22:20 -6.0° C -
Do, 23.01. 22:00 -5.6° C fast wolkenlos
Do, 23.01. 21:30 -6.1° C -
Do, 23.01. 21:00 -4.2° C fast wolkenlos
Do, 23.01. 20:30 -3.4° C -
Do, 23.01. 20:00 -3.4° C fast wolkenlos
Ortszeit Relative Feuchte Sichtweite
Do, 23.01. 19:00 99% 6 km
Do, 23.01. 13:00 90% 8 km
Do, 23.01. 7:00 98% 3.5 km
Do, 23.01. 1:00 94% 3.5 km
Mi, 22.01. 19:00 96% 5.0 km
Mi, 22.01. 13:00 91% 4.0 km
Mi, 22.01. 7:00 99% 2.5 km
Mi, 22.01. 1:00 96% 4.0 km
Ortszeit Relative Feuchte Sichtweite
Do, 23.01. 23:20 100% 4.0 km
Do, 23.01. 23:00 98% 4.5 km
Do, 23.01. 22:50 98% -
Do, 23.01. 22:40 98% -
Do, 23.01. 22:30 97% 5.0 km
Do, 23.01. 22:20 97% -
Do, 23.01. 22:00 98% 4.5 km
Do, 23.01. 21:30 94% 4.8 km
Do, 23.01. 21:00 99% 5.0 km
Do, 23.01. 20:30 100% 2.0 km
Do, 23.01. 20:00 98% 5.0 km
Ortszeit Niederschlagsmenge Niederschlagsart
Do, 23.01. 19:00 0.0 l/m2 in 12 Std. -
Do, 23.01. 13:00 0.0 l/m2 in 6 Std. -
Do, 23.01. 7:00 0.1 l/m2 in 12 Std. Nebel
Do, 23.01. 1:00 0.1 l/m2 in 6 Std. Schnee
Mi, 22.01. 19:00 0.1 l/m2 in 12 Std. Schnee
Mi, 22.01. 13:00 0.1 l/m2 in 6 Std. Schnee
Mi, 22.01. 7:00 0.1 l/m2 in 12 Std. Schnee
Mi, 22.01. 1:00 0.1 l/m2 in 6 Std. Schnee
Ortszeit Niederschlagsmenge Niederschlagsart
Do, 23.01. 23:20 keine Meldung -
Do, 23.01. 23:00 0.0 l/m2 in 1 Std. -
Do, 23.01. 22:50 keine Meldung -
Do, 23.01. 22:40 keine Meldung -
Do, 23.01. 22:30 0.0 l/m2 in 1 Std. -
Do, 23.01. 22:20 keine Meldung -
Do, 23.01. 22:00 0.0 l/m2 in 1 Std. -
Do, 23.01. 21:30 0.0 l/m2 in 1 Std. -
Do, 23.01. 21:00 0.0 l/m2 in 1 Std. -
Do, 23.01. 20:30 0.0 l/m2 in 1 Std. -
Do, 23.01. 20:00 0.0 l/m2 in 1 Std. -
Ortszeit Stärke Spitze Richtung
km/h Bft. km/h Grad Sektor
Do, 23.01. 19:00 6 1 31 310° NW
Do, 23.01. 13:00 20 4 28 90° O
Do, 23.01. 7:00 14 3 22 90° O
Do, 23.01. 1:00 7 2 11 90° O
Mi, 22.01. 19:00 6 1 15 340° N
Mi, 22.01. 13:00 7 2 14 310° NW
Mi, 22.01. 7:00 7 2 14 190° S
Mi, 22.01. 1:00 7 2 22 90° O
Ortszeit Stärke Spitze Richtung
km/h Bft. km/h Grad Sektor
Do, 23.01. 23:20 4 1 - uml. uml.
Do, 23.01. 23:00 4 1 7 220° SW
Do, 23.01. 22:50 4 1 - 220° SW
Do, 23.01. 22:40 4 1 - 230° SW
Do, 23.01. 22:30 4 1 4 250° W
Do, 23.01. 22:20 4 1 - 250° W
Do, 23.01. 22:00 2 1 4 300° NW
Do, 23.01. 21:30 4 1 4 270° W
Do, 23.01. 21:00 4 1 7 340° N
Do, 23.01. 20:30 4 1 7 330° NW
Do, 23.01. 20:00 4 1 7 320° NW
Ortszeit Untergrenze Bedeckung Gattung
total tief tief mittel hoch
Do, 23.01. 19:00 510 m 1/8 1/8 St - -
Do, 23.01. 13:00 210 m 8/8 7/8 St - -
Do, 23.01. 7:00 60 m 8/8 8/8 St - -
Do, 23.01. 1:00 150 m 8/8 8/8 St - -
Mi, 22.01. 19:00 120 m 7/8 7/8 St - -
Mi, 22.01. 13:00 150 m 8/8 8/8 St - -
Mi, 22.01. 7:00 60 m 8/8 8/8 St - -
Mi, 22.01. 1:00 120 m 8/8 8/8 St - -
Ortszeit Bedeckungsgrad in Achtel und Wolkenuntergrenze
Do, 23.01. 23:20 1-2(150m) 5-7(360m)
Do, 23.01. 23:00 2(360m) 7(420m)
Do, 23.01. 22:50 -
Do, 23.01. 22:40 -
Do, 23.01. 22:30 -
Do, 23.01. 22:20 -
Do, 23.01. 22:00 1(480m)
Do, 23.01. 21:30 -
Do, 23.01. 21:00 1(480m)
Do, 23.01. 20:30 -
Do, 23.01. 20:00 1(510m)
Ortszeit Luftdruck NN (hPa) Tendenz (hPa in 3 Std.)
Do, 23.01. 19:00 1030 - 1,0
Do, 23.01. 13:00 1033 - 2,0
Do, 23.01. 7:00 1036 - 0,9
Do, 23.01. 1:00 1038 + 0,2
Mi, 22.01. 19:00 1037 + 0,8
Mi, 22.01. 13:00 1037 - 0,9
Mi, 22.01. 7:00 1037 - 0,7
Mi, 22.01. 1:00 1040 - 1,0
Ortszeit Luftdruck NN (hPa) Tendenz (hPa in 3 Std.)
Do, 23.01. 23:20 1026 keine Meldung
Do, 23.01. 23:00 1030 - 0,2
Do, 23.01. 22:50 1030 keine Meldung
Do, 23.01. 22:40 1030 keine Meldung
Do, 23.01. 22:30 1030 - 0,2
Do, 23.01. 22:20 1030 keine Meldung
Do, 23.01. 22:00 1030 - 0,4
Do, 23.01. 21:30 1030 - 0,6
Do, 23.01. 21:00 1029 - 0,6
Do, 23.01. 20:30 1030 - 0,3
Do, 23.01. 20:00 1029 - 0,5
Ortszeit Schneehöhe (cm)
Do, 23.01. 19:00 0
Do, 23.01. 13:00 0
Do, 23.01. 7:00 0
Do, 23.01. 1:00 0
Mi, 22.01. 19:00 0
Mi, 22.01. 13:00 0
Mi, 22.01. 7:00 0
Mi, 22.01. 1:00 0
Ortszeit Schneehöhe (cm)
Do, 23.01. 23:20 -
Do, 23.01. 23:00 0
Do, 23.01. 22:50 0
Do, 23.01. 22:40 0
Do, 23.01. 22:30 0
Do, 23.01. 22:20 0
Do, 23.01. 22:00 0
Do, 23.01. 21:30 0
Do, 23.01. 21:00 0
Do, 23.01. 20:30 0
Do, 23.01. 20:00 0
Link zu dieser Seite / Seite empfehlen

Das Wetter in ...